Time;durP1;ratioP1;P1;durP2;ratioP2;P2;SDS_P1;SDS_P2;PMS_P1;PMS_P2;Temp;Humidity;BMP_temperature;BMP_pressure;BME280_temperature;BME280_humidity;BME280_pressure;Samples;Min_cycle;Max_cycle;Signal;HPM_P1;HPM_P2
2023/11/08 00:01:13;;;;;;;2.70;2.60;;;;;;;9.21;100.00;100975.56;10380216;28;20471;-68
2023/11/08 00:06:13;;;;;;;0.30;0.30;;;;;;;9.27;100.00;100976.69;10380048;28;20030;-69
2023/11/08 00:11:14;;;;;;;1.10;1.10;;;;;;;9.25;100.00;100970.63;10364906;28;20045;-70
2023/11/08 00:16:17;;;;;;;0.40;0.40;;;;;;;9.20;100.00;100979.31;10388933;28;20026;-70
2023/11/08 00:21:17;;;;;;;0.40;0.40;;;;;;;9.13;100.00;100988.34;10379558;28;20034;-70
2023/11/08 00:26:18;;;;;;;0.50;0.50;;;;;;;9.02;100.00;100987.75;10377621;28;20030;-68
2023/11/08 00:31:20;;;;;;;1.75;1.65;;;;;;;8.90;100.00;100991.09;10377942;28;20041;-71
2023/11/08 00:36:20;;;;;;;0.40;0.40;;;;;;;8.81;100.00;100983.09;10377771;28;20042;-69
2023/11/08 00:41:20;;;;;;;0.85;0.85;;;;;;;8.88;100.00;100996.69;10379027;28;20440;-71
2023/11/08 00:46:22;;;;;;;0.50;0.50;;;;;;;8.93;100.00;100999.66;10362365;28;20082;-68
2023/11/08 00:51:22;;;;;;;0.47;0.47;;;;;;;9.04;100.00;100988.44;10359943;28;20037;-68
2023/11/08 00:56:23;;;;;;;0.45;0.45;;;;;;;9.06;100.00;100999.91;10377429;28;20366;-69
2023/11/08 01:01:23;;;;;;;2.05;1.95;;;;;;;9.10;100.00;101011.16;10377496;28;20092;-70
2023/11/08 01:06:25;;;;;;;0.43;0.43;;;;;;;9.07;100.00;101015.06;10377424;28;20084;-70
2023/11/08 01:11:27;;;;;;;0.98;0.98;;;;;;;9.10;100.00;101021.13;10376362;28;20064;-70
2023/11/08 01:16:28;;;;;;;0.40;0.40;;;;;;;9.15;100.00;101021.41;10358450;28;20480;-68
2023/11/08 01:21:29;;;;;;;0.70;0.70;;;;;;;9.16;100.00;101029.34;10358670;28;20501;-68
2023/11/08 01:26:29;;;;;;;1.95;1.95;;;;;;;9.11;100.00;101037.16;10375683;28;20045;-70
2023/11/08 01:31:30;;;;;;;0.40;0.40;;;;;;;9.05;100.00;101036.00;10374959;28;20048;-70
2023/11/08 01:36:31;;;;;;;0.60;0.60;;;;;;;9.02;100.00;101049.88;10375291;28;20137;-72
2023/11/08 01:41:31;;;;;;;0.38;0.38;;;;;;;9.03;100.00;101048.88;10375173;28;20041;-69
2023/11/08 01:46:32;;;;;;;0.40;0.40;;;;;;;9.04;100.00;101045.16;10357569;28;20053;-70
2023/11/08 01:51:32;;;;;;;2.63;2.05;;;;;;;8.99;100.00;101042.16;10376256;28;20037;-70
2023/11/08 01:56:33;;;;;;;0.40;0.40;;;;;;;8.91;100.00;101038.72;10377395;28;20045;-70
2023/11/08 02:01:34;;;;;;;0.40;0.40;;;;;;;8.85;100.00;101034.88;10356516;28;20100;-70
2023/11/08 02:06:34;;;;;;;0.40;0.40;;;;;;;9.00;100.00;101043.84;10374381;28;20041;-69
2023/11/08 02:11:34;;;;;;;0.30;0.30;;;;;;;9.01;100.00;101039.28;10374520;28;20507;-72
2023/11/08 02:16:35;;;;;;;1.23;1.23;;;;;;;8.92;100.00;101037.69;10374342;28;20592;-70
2023/11/08 02:21:36;;;;;;;0.60;0.60;;;;;;;8.80;100.00;101045.38;10374193;28;20044;-70
2023/11/08 02:26:36;;;;;;;1.30;1.30;;;;;;;8.80;100.00;101046.22;10357398;28;20133;-72
2023/11/08 02:31:36;;;;;;;1.13;1.13;;;;;;;8.85;100.00;101046.50;10374643;28;20038;-70
2023/11/08 02:36:37;;;;;;;0.70;0.70;;;;;;;8.93;100.00;101040.19;10358550;28;20048;-69
2023/11/08 02:41:37;;;;;;;0.50;0.50;;;;;;;8.91;100.00;101039.53;10341426;28;20065;-71
2023/11/08 02:46:38;;;;;;;0.30;0.30;;;;;;;8.86;100.00;101036.53;10382448;28;20054;-68
2023/11/08 02:51:38;;;;;;;0.60;0.60;;;;;;;8.77;100.00;101033.06;10373543;28;20038;-71
2023/11/08 02:56:40;;;;;;;0.40;0.40;;;;;;;8.70;100.00;101026.72;10373061;28;20034;-70
2023/11/08 03:01:41;;;;;;;0.43;0.43;;;;;;;8.69;100.00;101035.84;10372935;28;20034;-72
2023/11/08 03:06:43;;;;;;;1.95;1.85;;;;;;;8.66;100.00;101025.41;10372198;28;20030;-70
2023/11/08 03:11:43;;;;;;;7.57;4.78;;;;;;;8.75;100.00;101031.59;10354210;28;20038;-69
2023/11/08 03:16:44;;;;;;;0.68;0.68;;;;;;;8.91;100.00;101033.31;10372232;28;20443;-70
2023/11/08 03:21:44;;;;;;;0.40;0.40;;;;;;;9.00;100.00;101038.44;10372204;28;20041;-69
2023/11/08 03:26:46;;;;;;;0.50;0.50;;;;;;;8.90;100.00;101028.91;10379386;28;20022;-68
2023/11/08 03:31:46;;;;;;;0.75;0.75;;;;;;;8.74;100.00;101032.59;10381557;28;20038;-69
2023/11/08 03:36:47;;;;;;;0.50;0.50;;;;;;;8.71;100.00;101030.25;10380411;28;20110;-70
2023/11/08 03:41:47;;;;;;;0.70;0.70;;;;;;;8.60;100.00;101034.25;10379648;28;20376;-69
2023/11/08 03:46:48;;;;;;;0.63;0.63;;;;;;;8.62;100.00;101034.91;10379788;28;20061;-69
2023/11/08 03:51:48;;;;;;;0.93;0.93;;;;;;;8.63;100.00;101049.25;10359131;28;20061;-72
2023/11/08 03:56:48;;;;;;;0.50;0.50;;;;;;;8.67;100.00;101034.34;10377488;28;20030;-71
2023/11/08 04:01:49;;;;;;;0.70;0.70;;;;;;;8.57;100.00;101042.69;10376630;28;20030;-69
2023/11/08 04:06:49;;;;;;;0.50;0.50;;;;;;;8.61;100.00;101049.41;10375632;28;20026;-71
2023/11/08 04:11:50;;;;;;;0.40;0.40;;;;;;;8.59;100.00;101041.50;10376618;28;20026;-69
2023/11/08 04:16:51;;;;;;;0.50;0.50;;;;;;;8.60;100.00;101045.88;10358254;28;20104;-71
2023/11/08 04:21:51;;;;;;;0.93;0.93;;;;;;;8.62;100.00;101056.50;10376662;28;20030;-72
2023/11/08 04:26:52;;;;;;;1.92;1.92;;;;;;;8.53;100.00;101050.31;10358100;28;20407;-69
2023/11/08 04:31:52;;;;;;;0.50;0.50;;;;;;;8.42;100.00;101053.44;10375703;28;20034;-71
2023/11/08 04:36:52;;;;;;;2.47;2.38;;;;;;;8.39;100.00;101061.88;10356983;28;20044;-70
2023/11/08 04:41:53;;;;;;;0.82;0.82;;;;;;;8.29;100.00;101069.34;10377426;28;20045;-70
2023/11/08 04:46:53;;;;;;;0.40;0.40;;;;;;;8.27;100.00;101068.69;10247339;28;3207191;-70
2023/11/08 04:51:54;;;;;;;0.45;0.45;;;;;;;8.30;100.00;101073.75;10359664;28;20132;-69
2023/11/08 04:56:55;;;;;;;2.83;2.70;;;;;;;8.37;100.00;101061.22;10359665;28;20085;-71
2023/11/08 05:01:56;;;;;;;0.40;0.40;;;;;;;8.42;100.00;101060.69;10376804;28;20058;-68
2023/11/08 05:06:56;;;;;;;2.10;1.25;;;;;;;8.32;100.00;101066.28;10377726;28;20446;-69
2023/11/08 05:11:57;;;;;;;1.23;1.13;;;;;;;8.24;100.00;101069.06;10360474;28;20041;-68
2023/11/08 05:16:57;;;;;;;2.40;2.30;;;;;;;8.18;100.00;101064.38;10375481;28;20096;-72
2023/11/08 05:21:58;;;;;;;2.35;2.22;;;;;;;8.11;100.00;101075.88;10377055;28;20088;-71
2023/11/08 05:26:58;;;;;;;1.45;1.45;;;;;;;8.07;100.00;101073.69;10352232;28;20077;-70
2023/11/08 05:31:59;;;;;;;1.95;1.85;;;;;;;7.96;100.00;101069.53;10377272;28;20042;-70
2023/11/08 05:36:59;;;;;;;0.50;0.50;;;;;;;7.92;100.00;101068.22;10375400;28;20041;-72
2023/11/08 05:41:59;;;;;;;0.47;0.47;;;;;;;7.86;100.00;101072.44;10374504;28;20057;-70
2023/11/08 05:47:01;;;;;;;0.50;0.50;;;;;;;7.99;100.00;101058.41;10358168;28;20060;-70
2023/11/08 05:52:01;;;;;;;0.70;0.70;;;;;;;8.12;100.00;101058.66;10374643;28;20042;-69
2023/11/08 05:57:02;;;;;;;0.40;0.40;;;;;;;8.15;100.00;101055.59;10375001;28;20042;-71
2023/11/08 06:02:02;;;;;;;0.50;0.50;;;;;;;8.28;100.00;101063.13;10355876;28;20084;-70
2023/11/08 06:07:03;;;;;;;0.60;0.60;;;;;;;8.18;100.00;101048.19;10374100;28;20034;-70
2023/11/08 06:12:04;;;;;;;0.50;0.50;;;;;;;8.14;100.00;101045.84;10373702;28;20088;-69
2023/11/08 06:17:04;;;;;;;1.40;1.40;;;;;;;8.12;100.00;101055.97;10374599;28;20384;-70
2023/11/08 06:22:05;;;;;;;0.50;0.50;;;;;;;8.06;100.00;101051.28;12095931;22;20395;-71
2023/11/08 06:27:05;;;;;;;0.47;0.47;;;;;;;7.97;100.00;101059.59;10313150;28;20030;-69
2023/11/08 06:32:06;;;;;;;0.43;0.43;;;;;;;7.91;100.00;101058.44;10333706;28;20045;-70
2023/11/08 06:37:07;;;;;;;0.43;0.43;;;;;;;7.86;100.00;101056.28;10315481;28;20052;-69
2023/11/08 06:42:07;;;;;;;0.50;0.50;;;;;;;7.78;100.00;101064.38;10333235;28;20061;-68
2023/11/08 06:47:08;;;;;;;0.50;0.50;;;;;;;7.81;100.00;101073.97;10331779;28;20030;-68
2023/11/08 06:52:08;;;;;;;0.60;0.60;;;;;;;7.81;100.00;101053.25;10331575;28;20111;-68
2023/11/08 06:57:09;;;;;;;0.43;0.43;;;;;;;7.79;100.00;101051.78;10332332;28;20440;-70
2023/11/08 07:02:10;;;;;;;0.40;0.40;;;;;;;7.81;100.00;101064.03;10298745;28;20421;-68
2023/11/08 07:07:11;;;;;;;1.95;1.95;;;;;;;7.93;100.00;101051.00;10314820;28;20026;-69
2023/11/08 07:12:11;;;;;;;0.50;0.50;;;;;;;7.93;100.00;101051.00;10336314;28;20044;-69
2023/11/08 07:17:12;;;;;;;0.60;0.60;;;;;;;8.08;100.00;101060.03;10332642;28;20058;-69
2023/11/08 07:22:13;;;;;;;0.52;0.52;;;;;;;8.64;100.00;101061.72;10330839;28;20050;-68
2023/11/08 07:27:13;;;;;;;0.47;0.47;;;;;;;8.74;100.00;101059.59;10331582;28;20030;-68
2023/11/08 07:32:14;;;;;;;1.98;1.85;;;;;;;9.04;100.00;101053.25;10332011;28;20484;-69
2023/11/08 07:37:15;;;;;;;0.52;0.52;;;;;;;9.29;100.00;101059.25;10313639;28;20062;-69
2023/11/08 07:42:16;;;;;;;0.40;0.40;;;;;;;9.20;100.00;101073.03;10313418;28;20034;-68
2023/11/08 07:47:16;;;;;;;0.70;0.70;;;;;;;9.40;100.00;101066.06;10331563;28;20473;-70
2023/11/08 07:52:16;;;;;;;0.77;0.77;;;;;;;9.60;100.00;101050.09;10331977;28;20030;-68
2023/11/08 07:57:17;;;;;;;0.60;0.60;;;;;;;9.89;100.00;101054.66;10335684;28;20054;-68
2023/11/08 08:02:18;;;;;;;6.88;3.97;;;;;;;10.36;100.00;101068.75;10334730;28;20026;-69
2023/11/08 08:07:18;;;;;;;10.10;3.83;;;;;;;9.76;100.00;101063.44;10330675;28;20089;-69
2023/11/08 08:12:19;;;;;;;3.75;2.10;;;;;;;9.40;100.00;101065.22;10336977;28;20432;-68
2023/11/08 08:17:20;;;;;;;9.15;3.60;;;;;;;9.27;100.00;101050.47;10338597;28;20026;-69
2023/11/08 08:22:21;;;;;;;6.38;2.33;;;;;;;9.32;100.00;101052.66;10337280;28;20342;-69
2023/11/08 08:27:21;;;;;;;5.70;3.13;;;;;;;9.25;100.00;101057.09;10337213;28;20054;-70
2023/11/08 08:32:21;;;;;;;9.93;2.85;;;;;;;9.31;100.00;101049.09;10336879;28;20027;-70
2023/11/08 08:37:22;;;;;;;6.60;2.83;;;;;;;10.20;100.00;101056.25;10319579;28;20432;-71
2023/11/08 08:42:22;;;;;;;3.70;3.17;;;;;;;10.08;100.00;101044.25;10303173;28;20053;-68
2023/11/08 08:47:23;;;;;;;5.68;2.28;;;;;;;9.74;100.00;101026.81;10337066;28;20065;-68
2023/11/08 08:52:23;;;;;;;6.75;3.42;;;;;;;9.47;100.00;101063.44;10336708;28;20110;-67
2023/11/08 08:57:24;;;;;;;9.32;2.47;;;;;;;9.32;100.00;101058.88;10336726;28;20118;-70
2023/11/08 09:02:25;;;;;;;9.75;2.63;;;;;;;9.22;100.00;101046.66;10334324;28;20065;-69
2023/11/08 09:07:25;;;;;;;6.15;3.03;;;;;;;9.16;100.00;101045.56;10335740;28;20487;-68
2023/11/08 09:12:26;;;;;;;5.25;3.30;;;;;;;9.18;100.00;101050.75;10318429;28;20046;-69
2023/11/08 09:17:27;;;;;;;7.78;4.03;;;;;;;9.19;100.00;101050.59;10335582;28;20034;-69
2023/11/08 09:22:27;;;;;;;14.10;4.55;;;;;;;9.24;100.00;101037.34;10334026;28;20074;-68
2023/11/08 09:27:27;;;;;;;21.67;4.38;;;;;;;9.33;100.00;101035.41;10336256;28;20030;-70
2023/11/08 09:32:28;;;;;;;11.10;4.30;;;;;;;9.42;100.00;101019.94;10319869;28;20034;-69
2023/11/08 09:37:28;;;;;;;15.68;5.03;;;;;;;9.86;100.00;101022.59;10336204;28;20088;-68
2023/11/08 09:42:31;;;;;;;8.05;3.95;;;;;;;11.31;100.00;101038.50;10335955;28;20049;-68
2023/11/08 09:47:33;;;;;;;10.55;4.15;;;;;;;11.34;100.00;101016.41;10334874;28;20405;-68
2023/11/08 09:52:33;;;;;;;12.68;4.13;;;;;;;11.04;100.00;101017.66;10300169;28;20026;-68
2023/11/08 09:57:34;;;;;;;6.00;3.45;;;;;;;11.18;100.00;101016.75;10300775;28;20030;-68
2023/11/08 10:02:36;;;;;;;19.92;3.30;;;;;;;11.20;100.00;101011.97;10284673;28;20038;-69
2023/11/08 10:07:39;;;;;;;7.80;3.28;;;;;;;12.28;100.00;101009.50;10334339;28;20045;-71
2023/11/08 10:12:39;;;;;;;6.45;4.15;;;;;;;12.85;100.00;100990.94;10333306;28;20097;-70
2023/11/08 10:17:41;;;;;;;13.65;3.75;;;;;;;11.91;100.00;100990.00;10333355;28;20394;-68
2023/11/08 10:22:42;;;;;;;7.97;4.65;;;;;;;11.34;100.00;100983.88;10332699;28;20052;-68
2023/11/08 10:27:42;;;;;;;9.55;3.70;;;;;;;11.05;100.00;100976.84;10299644;28;20504;-68
2023/11/08 10:32:43;;;;;;;9.57;3.40;;;;;;;10.81;100.00;100978.13;10331842;28;20035;-69
2023/11/08 10:37:43;;;;;;;11.07;4.10;;;;;;;10.83;100.00;100967.09;10299843;28;20030;-68
2023/11/08 10:42:51;;;;;;;6.65;3.00;;;;;;;10.90;100.00;100957.97;10315187;28;20129;-69
2023/11/08 10:47:51;;;;;;;10.35;3.88;;;;;;;10.91;100.00;100951.53;10332376;28;20030;-68
2023/11/08 10:52:52;;;;;;;7.90;4.13;;;;;;;11.20;100.00;100944.22;10314678;28;20023;-68
2023/11/08 10:57:55;;;;;;;6.25;3.97;;;;;;;11.24;100.00;100939.22;10314814;28;20372;-68
2023/11/08 11:02:58;;;;;;;9.23;3.63;;;;;;;11.24;100.00;100937.34;10314774;28;20339;-67
2023/11/08 11:08:00;;;;;;;4.70;3.30;;;;;;;11.35;100.00;100935.91;10314242;28;20026;-70
2023/11/08 11:13:03;;;;;;;5.07;3.97;;;;;;;11.76;100.00;100930.44;10314419;28;20406;-68
2023/11/08 11:18:04;;;;;;;19.17;5.25;;;;;;;11.23;100.00;100927.53;10314872;28;20044;-67
2023/11/08 11:23:32;;;;;;;10.00;3.83;;;;;;;10.66;100.00;100924.06;10314646;28;20179;-67
2023/11/08 11:28:52;;;;;;;5.50;3.67;;;;;;;10.43;100.00;100910.78;10331314;28;20030;-68
2023/11/08 11:33:53;;;;;;;7.65;4.00;;;;;;;10.25;100.00;100903.09;10331894;28;20401;-67
2023/11/08 11:39:12;;;;;;;6.05;3.83;;;;;;;10.25;100.00;100888.72;10332597;28;20412;-69
2023/11/08 11:44:13;;;;;;;6.60;4.20;;;;;;;10.31;100.00;100885.28;10332932;28;20026;-69
2023/11/08 11:49:14;;;;;;;4.57;4.15;;;;;;;10.11;100.00;100876.09;10321672;28;20027;-69
2023/11/08 11:54:14;;;;;;;4.75;3.40;;;;;;;9.97;100.00;100861.63;10308236;28;20435;-68
2023/11/08 11:59:15;;;;;;;7.90;3.70;;;;;;;9.96;100.00;100868.91;10344047;28;20030;-69
2023/11/08 12:04:17;;;;;;;8.55;3.78;;;;;;;9.81;100.00;100857.34;10348137;28;20035;-67
2023/11/08 12:09:19;;;;;;;8.82;3.75;;;;;;;9.73;100.00;100847.50;10322895;28;20026;-67
2023/11/08 12:14:21;;;;;;;12.80;3.40;;;;;;;9.70;100.00;100842.47;10338150;28;20037;-68
2023/11/08 12:19:21;;;;;;;10.02;3.92;;;;;;;9.68;100.00;100822.88;10338318;28;20039;-66
2023/11/08 12:24:22;;;;;;;8.65;5.22;;;;;;;9.65;100.00;100817.03;10321408;28;20046;-65
2023/11/08 12:29:23;;;;;;;9.57;5.18;;;;;;;9.67;100.00;100809.56;10337717;28;20026;-66
2023/11/08 12:34:26;;;;;;;10.70;4.13;;;;;;;9.50;100.00;100807.09;10319812;28;20058;-67
2023/11/08 12:39:27;;;;;;;5.07;4.28;;;;;;;9.36;100.00;100797.19;10319940;28;20037;-69
2023/11/08 12:44:48;;;;;;;8.32;4.57;;;;;;;9.51;100.00;100787.19;10319673;28;20380;-67
2023/11/08 12:49:48;;;;;;;33.42;4.05;;;;;;;9.36;100.00;100770.19;10288887;28;20077;-67
2023/11/08 12:54:56;;;;;;;0.50;0.50;;;;;;;9.39;100.00;100767.09;10335982;28;20351;-67
2023/11/08 12:59:57;;;;;;;0.60;0.60;;;;;;;9.32;100.00;100760.78;10337000;28;20042;-71
2023/11/08 13:05:00;;;;;;;0.75;0.75;;;;;;;9.37;100.00;100752.91;10335660;28;20038;-68
2023/11/08 13:10:00;;;;;;;0.60;0.60;;;;;;;9.45;100.00;100742.00;10334929;28;20030;-69
2023/11/08 13:15:01;;;;;;;0.93;0.93;;;;;;;9.45;100.00;100730.34;10334030;28;20035;-66
2023/11/08 13:20:04;;;;;;;25.77;3.15;;;;;;;9.44;100.00;100709.75;10335392;28;20361;-68
2023/11/08 13:25:04;;;;;;;0.60;0.60;;;;;;;9.29;100.00;100699.03;10335914;28;20057;-67
2023/11/08 13:30:06;;;;;;;0.82;0.82;;;;;;;9.24;100.00;100696.88;10334615;28;20037;-67
2023/11/08 13:35:11;;;;;;;0.40;0.40;;;;;;;9.11;100.00;100688.66;10334843;28;20415;-67
2023/11/08 13:40:12;;;;;;;0.55;0.55;;;;;;;9.03;100.00;100681.53;10335358;28;20037;-69
2023/11/08 13:45:13;;;;;;;2.60;2.38;;;;;;;8.92;100.00;100665.81;10319803;28;20038;-66
2023/11/08 13:50:15;;;;;;;2.15;2.05;;;;;;;8.85;100.00;100656.84;10336156;28;20027;-69
2023/11/08 13:55:15;;;;;;;0.43;0.43;;;;;;;8.86;100.00;100642.28;10334555;28;20117;-71
2023/11/08 14:00:17;;;;;;;0.35;0.35;;;;;;;8.91;100.00;100652.53;10333584;28;20114;-69
2023/11/08 14:05:18;;;;;;;0.57;0.57;;;;;;;8.88;100.00;100596.22;10318724;28;20065;-68
2023/11/08 14:10:18;;;;;;;0.35;0.35;;;;;;;8.86;100.00;100626.09;10316691;28;20038;-69
2023/11/08 14:15:18;;;;;;;0.50;0.50;;;;;;;8.77;100.00;100605.66;10317019;28;20142;-69
2023/11/08 14:20:19;;;;;;;0.40;0.40;;;;;;;8.59;100.00;100606.94;10336098;28;20357;-68
2023/11/08 14:25:19;;;;;;;0.52;0.52;;;;;;;8.59;100.00;100588.03;10333504;28;20077;-67
2023/11/08 14:30:20;;;;;;;0.50;0.50;;;;;;;8.59;100.00;100577.25;10333443;28;20129;-70
2023/11/08 14:35:21;;;;;;;1.23;1.17;;;;;;;8.65;100.00;100582.88;10314512;28;20034;-70
2023/11/08 14:40:24;;;;;;;0.50;0.50;;;;;;;8.71;100.00;100584.81;10333441;28;20036;-69
2023/11/08 14:45:24;;;;;;;0.52;0.52;;;;;;;8.72;100.00;100573.00;10315144;28;20532;-70
2023/11/08 14:50:25;;;;;;;0.40;0.40;;;;;;;8.70;100.00;100569.66;10332630;28;20106;-71
2023/11/08 14:55:25;;;;;;;0.50;0.50;;;;;;;8.68;100.00;100564.47;10314612;28;20033;-68
2023/11/08 15:00:26;;;;;;;0.40;0.40;;;;;;;8.75;100.00;100545.63;10333693;28;20026;-68
2023/11/08 15:05:28;;;;;;;0.50;0.50;;;;;;;8.78;100.00;100556.88;10314724;28;20030;-68
2023/11/08 15:10:29;;;;;;;0.40;0.40;;;;;;;8.74;100.00;100531.31;10332056;28;20511;-69
2023/11/08 15:15:29;;;;;;;0.50;0.50;;;;;;;8.81;100.00;100524.09;10331156;28;20096;-68
2023/11/08 15:20:30;;;;;;;0.40;0.40;;;;;;;8.88;100.00;100531.41;10337962;28;20121;-68
2023/11/08 15:25:31;;;;;;;0.40;0.40;;;;;;;8.89;100.00;100519.56;10338807;28;20397;-67
2023/11/08 15:30:32;;;;;;;0.50;0.50;;;;;;;8.85;100.00;100508.31;10322151;28;20035;-69
2023/11/08 15:35:32;;;;;;;1.52;1.45;;;;;;;8.91;100.00;100499.44;10339871;28;20038;-70
2023/11/08 15:40:32;;;;;;;0.60;0.60;;;;;;;8.97;100.00;100497.84;10339664;28;20466;-68
2023/11/08 15:45:33;;;;;;;0.50;0.50;;;;;;;8.96;100.00;100491.56;10338844;28;20034;-69
2023/11/08 15:50:33;;;;;;;3.78;2.15;;;;;;;9.01;100.00;100486.41;10321145;28;20038;-67
2023/11/08 15:55:35;;;;;;;0.40;0.40;;;;;;;9.02;100.00;100487.25;10339637;28;20038;-69
2023/11/08 16:00:36;;;;;;;0.50;0.50;;;;;;;8.99;100.00;100480.38;10338372;28;20031;-67
2023/11/08 16:05:36;;;;;;;0.40;0.40;;;;;;;9.02;100.00;100485.38;10337948;28;20082;-70
2023/11/08 16:10:37;;;;;;;0.50;0.50;;;;;;;8.97;100.00;100463.56;10320499;28;20489;-69
2023/11/08 16:15:38;;;;;;;0.40;0.40;;;;;;;9.00;100.00;100460.44;10320079;28;20437;-69
2023/11/08 16:20:39;;;;;;;0.50;0.50;;;;;;;9.05;100.00;100444.47;10337747;28;20069;-68
2023/11/08 16:25:39;;;;;;;0.80;0.80;;;;;;;9.06;100.00;100448.88;10338550;28;20061;-68
2023/11/08 16:30:40;;;;;;;1.75;1.17;;;;;;;9.14;100.00;100438.91;10337943;28;20067;-69
2023/11/08 16:35:40;;;;;;;0.50;0.50;;;;;;;9.16;100.00;100444.97;10337359;28;20088;-70
2023/11/08 16:40:41;;;;;;;0.80;0.80;;;;;;;9.25;100.00;100441.03;10336897;28;20085;-68
2023/11/08 16:45:41;;;;;;;0.40;0.40;;;;;;;9.28;100.00;100443.34;10336448;28;20042;-68
2023/11/08 16:50:41;;;;;;;0.50;0.50;;;;;;;9.33;100.00;100438.19;10336403;28;20056;-69
2023/11/08 16:55:42;;;;;;;0.50;0.50;;;;;;;9.32;100.00;100439.22;10321684;28;20041;-67
2023/11/08 17:00:44;;;;;;;0.43;0.43;;;;;;;9.34;100.00;100417.41;10340061;28;20353;-67
2023/11/08 17:05:44;;;;;;;0.47;0.47;;;;;;;9.37;100.00;100417.00;10318922;28;20029;-69
2023/11/08 17:10:44;;;;;;;8.95;1.98;;;;;;;9.42;100.00;100415.38;10318304;28;20026;-68
2023/11/08 17:15:45;;;;;;;0.30;0.30;;;;;;;9.44;100.00;100415.97;10335714;28;20228;-68
2023/11/08 17:20:46;;;;;;;0.45;0.45;;;;;;;9.49;100.00;100418.91;10335179;28;20018;-68
2023/11/08 17:25:46;;;;;;;0.77;0.77;;;;;;;9.51;100.00;100410.63;10335376;28;20050;-71
2023/11/08 17:30:47;;;;;;;0.40;0.40;;;;;;;9.51;100.00;100400.63;10333198;28;20434;-69
2023/11/08 17:35:49;;;;;;;0.90;0.90;;;;;;;9.52;100.00;100391.50;10335201;28;20033;-68
2023/11/08 17:40:49;;;;;;;0.50;0.50;;;;;;;9.60;100.00;100405.84;10333988;28;20065;-69
2023/11/08 17:45:49;;;;;;;0.40;0.40;;;;;;;9.66;100.00;100399.63;10334928;28;20050;-68
2023/11/08 17:50:53;;;;;;;0.40;0.40;;;;;;;9.63;100.00;100395.47;10316555;28;20121;-69
2023/11/08 17:55:54;;;;;;;0.40;0.40;;;;;;;9.71;100.00;100395.28;10332376;28;20056;-68
2023/11/08 18:00:55;;;;;;;0.40;0.40;;;;;;;9.69;100.00;100383.84;10300021;28;20040;-68
2023/11/08 18:05:57;;;;;;;0.90;0.90;;;;;;;9.64;100.00;100380.94;10332839;28;20042;-68
2023/11/08 18:10:57;;;;;;;0.70;0.70;;;;;;;9.68;100.00;100371.38;10333520;28;20450;-69
2023/11/08 18:15:59;;;;;;;0.40;0.40;;;;;;;9.68;100.00;100363.25;10333182;28;20045;-68
2023/11/08 18:21:00;;;;;;;0.60;0.60;;;;;;;9.70;100.00;100357.63;10334750;28;20386;-73
2023/11/08 18:26:00;;;;;;;0.50;0.50;;;;;;;9.74;100.00;100365.13;10331118;28;20050;-70
2023/11/08 18:31:01;;;;;;;2.30;1.70;;;;;;;9.78;100.00;100335.81;10316543;28;20030;-68
2023/11/08 18:36:01;;;;;;;0.50;0.50;;;;;;;9.86;100.00;100356.41;10321657;28;20057;-69
2023/11/08 18:41:02;;;;;;;1.13;1.13;;;;;;;9.86;100.00;100359.97;10337123;28;20033;-70
2023/11/08 18:46:03;;;;;;;2.30;2.25;;;;;;;9.80;100.00;100352.66;10332508;28;20073;-68
2023/11/08 18:51:07;;;;;;;0.40;0.40;;;;;;;9.83;100.00;100336.03;10331586;28;20062;-69
2023/11/08 18:56:08;;;;;;;0.82;0.73;;;;;;;9.82;100.00;100323.53;10331769;28;20030;-67
2023/11/08 19:01:11;;;;;;;0.80;0.80;;;;;;;9.84;100.00;100334.16;10298382;28;20026;-68
2023/11/08 19:06:11;;;;;;;0.50;0.50;;;;;;;9.91;100.00;100329.59;10331546;28;20030;-69
2023/11/08 19:11:13;;;;;;;0.40;0.40;;;;;;;9.91;100.00;100319.59;10331453;28;20418;-70
2023/11/08 19:16:14;;;;;;;1.38;1.38;;;;;;;9.92;100.00;100318.56;10331660;28;20365;-69
2023/11/08 19:21:15;;;;;;;0.85;0.85;;;;;;;9.96;100.00;100319.81;10334326;28;20041;-69
2023/11/08 19:26:15;;;;;;;0.50;0.50;;;;;;;9.98;100.00;100290.66;10332991;28;20047;-69
2023/11/08 19:31:16;;;;;;;0.40;0.40;;;;;;;10.02;100.00;100307.34;10334919;28;20034;-69
2023/11/08 19:36:16;;;;;;;0.40;0.40;;;;;;;10.07;100.00;100290.47;10331533;28;20125;-71
2023/11/08 19:41:16;;;;;;;0.50;0.50;;;;;;;10.07;100.00;100301.28;10331484;28;20477;-69
2023/11/08 19:46:17;;;;;;;0.40;0.40;;;;;;;10.10;100.00;100299.00;10330948;28;20046;-70
2023/11/08 19:51:17;;;;;;;0.40;0.40;;;;;;;10.12;100.00;100299.63;10331146;28;20030;-68
2023/11/08 19:56:18;;;;;;;0.80;0.80;;;;;;;10.14;100.00;100250.69;10330861;28;20113;-69
2023/11/08 20:01:18;;;;;;;0.40;0.40;;;;;;;10.12;100.00;100285.28;10329512;28;20133;-69
2023/11/08 20:06:19;;;;;;;0.50;0.50;;;;;;;10.14;100.00;100296.69;10318136;28;20038;-69
2023/11/08 20:11:19;;;;;;;0.45;0.45;;;;;;;10.14;100.00;100275.88;10336815;28;20357;-70
2023/11/08 20:16:19;;;;;;;2.10;2.00;;;;;;;10.13;100.00;100268.00;10337413;28;20030;-69
2023/11/08 20:21:24;;;;;;;0.57;0.57;;;;;;;10.18;100.00;100270.91;10320948;28;20593;-69
2023/11/08 20:26:24;;;;;;;0.40;0.40;;;;;;;10.11;100.00;100256.53;10340055;28;20066;-70
2023/11/08 20:31:25;;;;;;;0.80;0.80;;;;;;;10.25;100.00;100264.44;10319401;28;20049;-70
2023/11/08 20:36:25;;;;;;;0.40;0.40;;;;;;;10.24;100.00;100254.66;10319765;28;20394;-70
2023/11/08 20:41:26;;;;;;;0.60;0.60;;;;;;;10.27;100.00;100239.06;10336998;28;20030;-68
2023/11/08 20:46:26;;;;;;;0.40;0.40;;;;;;;10.32;100.00;100245.50;10319222;28;20038;-70
2023/11/08 20:51:26;;;;;;;1.73;1.63;;;;;;;10.25;100.00;100242.78;10319112;28;20053;-70
2023/11/08 20:56:27;;;;;;;0.40;0.40;;;;;;;10.28;100.00;100236.16;10339205;28;20393;-73
2023/11/08 21:01:28;;;;;;;0.50;0.50;;;;;;;10.32;100.00;100231.16;10336817;28;20069;-74
2023/11/08 21:06:28;;;;;;;0.50;0.50;;;;;;;10.27;100.00;100220.94;10318768;28;20131;-71
2023/11/08 21:11:29;;;;;;;0.40;0.40;;;;;;;10.28;100.00;100222.63;10337431;28;20106;-71
2023/11/08 21:16:29;;;;;;;0.40;0.40;;;;;;;10.17;100.00;100202.41;10335105;28;20452;-71
2023/11/08 21:21:30;;;;;;;0.35;0.35;;;;;;;10.26;100.00;100216.56;10335230;28;20038;-68
2023/11/08 21:26:30;;;;;;;0.50;0.50;;;;;;;10.21;100.00;100205.50;10301606;28;20145;-72
2023/11/08 21:31:31;;;;;;;0.60;0.60;;;;;;;10.24;100.00;100196.97;10335837;28;20038;-70
2023/11/08 21:36:32;;;;;;;0.43;0.43;;;;;;;10.31;100.00;100199.72;10334758;28;20481;-71
2023/11/08 21:41:32;;;;;;;0.47;0.47;;;;;;;10.29;100.00;100193.69;10333106;28;20367;-71
2023/11/08 21:46:33;;;;;;;0.40;0.40;;;;;;;10.30;100.00;100196.16;10333874;28;20125;-71
2023/11/08 21:51:33;;;;;;;0.50;0.50;;;;;;;10.32;100.00;100180.56;10334133;28;20446;-69
2023/11/08 21:56:33;;;;;;;0.30;0.30;;;;;;;10.30;100.00;100166.41;10336109;28;20065;-69
2023/11/08 22:01:34;;;;;;;0.70;0.70;;;;;;;10.32;100.00;100158.91;10332662;28;20054;-70
2023/11/08 22:06:34;;;;;;;0.40;0.40;;;;;;;10.33;100.00;100157.84;10333813;28;20081;-70
2023/11/08 22:11:36;;;;;;;1.17;1.17;;;;;;;10.35;100.00;100157.66;10333594;28;20049;-71
2023/11/08 22:16:39;;;;;;;0.40;0.40;;;;;;;10.34;100.00;100147.84;10332428;28;20121;-69
2023/11/08 22:21:43;;;;;;;0.45;0.45;;;;;;;10.40;100.00;100150.56;10315634;28;20038;-70
2023/11/08 22:26:43;;;;;;;0.70;0.70;;;;;;;10.32;100.00;100139.97;10334774;28;20058;-72
2023/11/08 22:31:44;;;;;;;0.50;0.50;;;;;;;10.33;100.00;100144.31;10333079;28;20132;-72
2023/11/08 22:36:44;;;;;;;0.32;0.32;;;;;;;10.34;100.00;100132.47;10332521;28;20393;-70
2023/11/08 22:41:45;;;;;;;0.40;0.40;;;;;;;10.44;100.00;100124.72;10332914;28;20034;-73
2023/11/08 22:46:45;;;;;;;0.68;0.68;;;;;;;10.51;100.00;100110.31;10314200;28;20038;-74
2023/11/08 22:51:46;;;;;;;0.40;0.40;;;;;;;10.41;100.00;100106.19;10341611;28;20045;-71
2023/11/08 22:56:46;;;;;;;0.50;0.50;;;;;;;10.46;100.00;100113.66;10332717;28;20042;-72